Tuesday, October 23, 2018, 11:51 PM EDT
Back to Local

KNTU, Oceana, Naval Air Station

Location: Virginia Beach, VA, United States Lat: 36.817
Local Time: 11:51 PM EDT ( 3:51 GMT) Lon: -76.033
Time Zone: US/Eastern Elev: 22 ft

Show me the last for .
Show Decoded

2018-10-23 22:56 METAR KNTU 240256Z 23006KT 10SM CLR 11/07 A3006 RMK AO2 SLP180 T01110067 50002 =
2018-10-23 21:56 METAR KNTU 240156Z 23007KT 10SM CLR 12/07 A3006 RMK AO2 SLP181 T01170067 =
2018-10-23 20:56 METAR KNTU 240056Z 22007KT 10SM CLR 12/07 A3006 RMK AO2 SLP180 T01170072 =
2018-10-23 19:56 METAR KNTU 232356Z 23004KT 10SM FEW250 11/06 A3005 RMK AO2 SLP178 T01110061
                 10206 20111 53012 =
2018-10-23 18:56 METAR KNTU 232256Z 23004KT 10SM FEW250 14/06 A3003 RMK AO2 SLP170 T01440056 =
2018-10-23 17:56 METAR KNTU 232156Z 24008KT 10SM CLR 17/04 A3002 RMK AO2 SLP167 T01720044 =
2018-10-23 16:56 METAR KNTU 232056Z 25008KT 10SM FEW250 19/03 A3001 RMK AO2 SLP166 T01940033
                 56017 =
2018-10-23 15:56 METAR KNTU 231956Z 22009KT 10SM SCT250 21/05 A3002 RMK AO2 SLP166 T02060050 =
2018-10-23 14:56 METAR KNTU 231856Z 22011KT 10SM SCT250 21/04 A3004 RMK AO2 SLP174 T02060039 =
2018-10-23 13:56 METAR KNTU 231756Z 28008KT 10SM SCT250 20/04 A3007 RMK AO2 SLP183 T02000039
                 10200 20089 58024 =
2018-10-23 12:56 METAR KNTU 231656Z 25009KT 10SM SCT250 19/05 A3010 RMK AO2 SLP193 T01890050 =
2018-10-23 11:56 METAR KNTU 231556Z 23010KT 10SM SCT250 17/05 A3012 RMK AO2 SLP202 T01670050 =
2018-10-23 10:56 METAR KNTU 231456Z 24010KT 10SM FEW130 SCT250 15/05 A3014 RMK AO2 SLP207
                 T01500050 =
2018-10-23 09:56 METAR KNTU 231356Z 22009KT 10SM SCT130 SCT250 12/05 A3016 RMK AO2 SLP214
                 T01220050 VISNO RWY 5R $ =
2018-10-23 08:56 METAR KNTU 231256Z 23008KT 10SM SCT130 SCT250 10/04 A3016 RMK AO2 SLP216
                 T01000044 =
2018-10-23 07:56 METAR KNTU 231156Z 23008KT 10SM SCT080 SCT250 09/04 A3015 RMK AO2 SLP213
                 T00890044 10100 20056 56003 =
2018-10-23 06:56 METAR KNTU 231056Z 23007KT 10SM SCT250 06/04 A3016 RMK AO2 SLP214 T00610044 =
2018-10-23 05:56 METAR KNTU 230956Z 21004KT 10SM SCT250 06/04 A3016 RMK AO2 SLP214 T00610044 =
2018-10-23 04:56 METAR KNTU 230856Z 24004KT 10SM FEW250 07/03 A3016 RMK AO2 SLP217 T00670033
                 56013 =
2018-10-23 03:56 METAR KNTU 230756Z 21007KT 10SM FEW250 09/04 A3017 RMK AO2 SLP218 T00940044 =
2018-10-23 02:56 METAR KNTU 230656Z 21007KT 10SM FEW250 10/06 A3019 RMK AO2 SLP224 T01000061 =
2018-10-23 01:56 METAR KNTU 230556Z 22005KT 10SM FEW250 08/04 A3020 RMK AO2 SLP230 T00780039
                 10111 20067 58008 =
2018-10-23 00:56 METAR KNTU 230456Z 22006KT 10SM FEW250 08/03 A3022 RMK AO2 SLP236 T00830033
                 401670033 =
2018-10-22 23:56 METAR KNTU 230356Z 23006KT 10SM SCT250 08/03 A3022 RMK AO2 SLP236 T00830033 =

Support USWX by starting your Amazon purchase here.